Time;durP1;ratioP1;P1;durP2;ratioP2;P2;SDS_P1;SDS_P2;PMS_P1;PMS_P2;Temp;Humidity;BMP_temperature;BMP_pressure;BME280_temperature;BME280_humidity;BME280_pressure;Samples;Min_cycle;Max_cycle;Signal;HPM_P1;HPM_P2
2023/09/19 00:02:04;;;;;;;;;1.00;1.00;;;;;20.66;64.64;100703.41;5077500;28;45355;-73
2023/09/19 00:04:33;;;;;;;;;1.67;1.67;;;;;20.73;64.31;100698.06;5077929;28;45426;-73
2023/09/19 00:06:59;;;;;;;;;2.67;1.67;;;;;20.79;64.58;100714.81;5077737;27;45201;-78
2023/09/19 00:09:27;;;;;;;;;2.67;2.33;;;;;20.86;64.70;100711.19;5059114;28;45494;-73
2023/09/19 00:11:53;;;;;;;;;2.67;2.33;;;;;20.82;65.14;100704.16;5077441;28;45463;-73
2023/09/19 00:14:19;;;;;;;;;3.00;3.00;;;;;20.80;64.77;100713.03;5076764;27;45299;-79
2023/09/19 00:16:46;;;;;;;;;3.33;3.00;;;;;20.72;64.74;100710.47;5077448;28;45382;-73
2023/09/19 00:19:13;;;;;;;;;1.00;1.00;;;;;20.70;64.70;100698.97;5076977;28;46425;-73
2023/09/19 00:21:38;;;;;;;;;3.00;3.00;;;;;20.79;64.69;100700.66;5076987;28;45451;-73
2023/09/19 00:24:06;;;;;;;;;2.00;2.00;;;;;20.82;64.74;100714.78;5077236;28;45363;-73
2023/09/19 00:26:34;;;;;;;;;2.33;2.00;;;;;20.88;64.27;100707.66;5077865;28;45457;-73
2023/09/19 00:29:08;;;;;;;;;2.33;1.33;;;;;20.82;65.12;100698.84;5077259;28;45483;-73
2023/09/19 00:31:34;;;;;;;;;2.33;2.33;;;;;20.85;65.34;100712.09;5077183;27;45906;-73
2023/09/19 00:34:06;;;;;;;;;3.33;2.00;;;;;20.74;65.32;100700.69;5076934;28;45445;-73
2023/09/19 00:36:33;;;;;;;;;3.33;2.00;;;;;20.73;65.23;100708.66;5077425;28;45449;-73
2023/09/19 00:38:59;;;;;;;;;2.00;1.67;;;;;20.69;65.64;100702.53;5059058;28;47326;-78
2023/09/19 00:41:25;;;;;;;;;3.33;2.00;;;;;20.72;65.17;100697.19;5076742;28;45257;-73
2023/09/19 00:43:50;;;;;;;;;1.00;1.00;;;;;20.77;64.77;100702.44;5076655;28;45408;-79
2023/09/19 00:46:19;;;;;;;;;2.00;2.00;;;;;20.80;64.88;100705.94;5077261;28;45532;-79
2023/09/19 00:48:46;;;;;;;;;3.00;3.00;;;;;20.68;64.79;100679.53;5076886;28;45562;-73
2023/09/19 00:51:13;;;;;;;;;1.67;1.67;;;;;20.76;65.00;100698.03;5058601;28;45437;-73
2023/09/19 00:53:46;;;;;;;;;2.00;2.00;;;;;20.64;65.07;100691.06;5076749;28;45283;-72
2023/09/19 00:56:11;;;;;;;;;2.33;1.67;;;;;20.70;65.18;100698.09;5058841;28;45579;-73
2023/09/19 00:58:38;;;;;;;;;2.00;1.67;;;;;20.38;65.24;100659.44;5076798;28;45495;-73
2023/09/19 01:01:06;;;;;;;;;3.00;2.33;;;;;20.57;65.20;100684.00;5077059;28;45454;-73
2023/09/19 01:03:33;;;;;;;;;2.00;2.00;;;;;20.58;65.10;100693.75;5077038;28;45481;-73
2023/09/19 01:06:02;;;;;;;;;2.00;2.00;;;;;20.67;65.13;100693.69;5076994;28;45497;-73
2023/09/19 01:08:29;;;;;;;;;2.00;1.00;;;;;20.63;65.66;100683.97;5058204;28;45249;-79
2023/09/19 01:11:18;;;;;;;;;1.67;1.67;;;;;20.65;65.56;100691.06;5076615;28;45517;-73
2023/09/19 01:14:26;;;;;;;;;2.00;2.00;;;;;20.72;65.43;100689.22;5076773;28;45512;-73
2023/09/19 01:17:15;;;;;;;;;1.67;1.00;;;;;20.69;65.55;100681.31;5076654;28;45418;-79
2023/09/19 01:20:16;;;;;;;;;3.00;1.67;;;;;20.77;65.02;100682.09;5058468;28;46181;-73
2023/09/19 01:22:52;;;;;;;;;1.00;1.00;;;;;20.75;65.19;100667.97;5058310;28;45550;-73
2023/09/19 01:25:27;;;;;;;;;2.00;2.00;;;;;20.81;64.50;100686.50;5077297;28;45445;-73
2023/09/19 01:28:26;;;;;;;;;2.67;2.00;;;;;20.78;64.83;100685.63;5080089;28;45330;-74
2023/09/19 01:30:57;;;;;;;;;2.00;2.00;;;;;20.71;64.99;100690.13;5079670;28;45768;-73
2023/09/19 01:33:23;;;;;;;;;1.67;1.67;;;;;20.61;65.72;100688.44;5079603;28;45319;-73
2023/09/19 01:35:50;;;;;;;;;2.00;1.67;;;;;20.54;65.38;100686.72;5079816;28;45472;-74
2023/09/19 01:38:17;;;;;;;;;3.33;2.00;;;;;20.44;65.35;100676.16;5079970;28;45336;-73
2023/09/19 01:40:45;;;;;;;;;1.67;1.33;;;;;20.36;66.31;100678.00;5079707;28;45952;-72
2023/09/19 01:43:25;;;;;;;;;1.33;1.33;;;;;20.27;66.33;100675.41;5079541;28;45296;-73
2023/09/19 01:45:58;;;;;;;;;1.67;1.00;;;;;20.27;66.45;100672.75;5058902;28;45333;-78
2023/09/19 01:48:35;;;;;;;;;1.67;1.67;;;;;20.26;66.38;100681.63;5079812;28;45489;-73
2023/09/19 01:51:05;;;;;;;;;3.67;2.33;;;;;20.14;66.84;100679.94;5061020;28;46542;-73
2023/09/19 01:53:40;;;;;;;;;2.67;2.67;;;;;20.15;66.63;100671.06;5079273;28;45568;-73
2023/09/19 01:56:12;;;;;;;;;2.67;1.67;;;;;20.19;66.90;100671.94;5079644;28;45421;-73
2023/09/19 01:58:45;;;;;;;;;3.00;2.33;;;;;20.16;66.07;100679.94;5079970;28;45331;-73
2023/09/19 02:01:16;;;;;;;;;2.33;2.00;;;;;20.25;66.64;100686.06;5060807;28;45555;-73
2023/09/19 02:03:44;;;;;;;;;2.33;2.33;;;;;20.22;66.40;100669.28;5079103;28;45514;-73
2023/09/19 02:06:15;;;;;;;;;3.00;3.00;;;;;20.36;66.49;100688.63;5079401;28;45438;-77
2023/09/19 02:08:41;;;;;;;;;2.67;2.00;;;;;20.37;66.51;100682.44;5079492;28;45667;-73
2023/09/19 02:11:07;;;;;;;;;1.67;1.67;;;;;20.44;66.27;100681.47;5060982;28;47797;-73
2023/09/19 02:13:33;;;;;;;;;1.67;1.67;;;;;20.48;66.10;100692.06;5079068;27;45395;-78
2023/09/19 02:15:59;;;;;;;;;2.00;2.00;;;;;20.46;65.81;100685.00;5078881;28;45526;-73
2023/09/19 02:18:28;;;;;;;;;1.67;1.67;;;;;20.46;65.93;100684.13;5079194;28;45439;-73
2023/09/19 02:20:54;;;;;;;;;3.00;1.00;;;;;20.48;66.26;100679.69;5078857;28;46417;-73
2023/09/19 02:23:20;;;;;;;;;2.67;2.67;;;;;20.54;66.18;100694.66;5078645;28;45878;-73
2023/09/19 02:25:57;;;;;;;;;2.33;2.00;;;;;20.48;66.34;100692.06;5079031;28;45430;-73
2023/09/19 02:28:23;;;;;;;;;2.33;2.33;;;;;20.37;66.13;100679.78;5060938;28;45539;-73
2023/09/19 02:30:50;;;;;;;;;1.67;1.67;;;;;20.48;66.13;100692.06;5078677;28;46069;-73
2023/09/19 02:33:17;;;;;;;;;1.67;1.67;;;;;20.41;66.18;100681.50;5060746;28;45295;-73
2023/09/19 02:35:42;;;;;;;;;0.67;0.67;;;;;20.29;67.11;100670.97;5078529;28;45509;-73
2023/09/19 02:38:11;;;;;;;;;2.00;2.00;;;;;20.21;67.03;100663.09;5079176;28;45386;-73
2023/09/19 02:40:37;;;;;;;;;2.00;2.00;;;;;20.28;66.75;100679.84;5078965;27;45362;-73
2023/09/19 02:43:03;;;;;;;;;1.33;0.67;;;;;20.30;66.37;100675.41;5078187;28;45295;-73
2023/09/19 02:45:30;;;;;;;;;0.67;0.67;;;;;20.36;66.77;100680.66;5078659;28;45336;-72
2023/09/19 02:47:55;;;;;;;;;2.00;2.00;;;;;20.30;67.23;100679.84;5060540;28;45499;-78
2023/09/19 02:50:21;;;;;;;;;1.00;1.00;;;;;20.14;66.96;100679.94;5078459;28;45977;-73
2023/09/19 02:52:50;;;;;;;;;2.67;2.67;;;;;20.08;66.84;100660.56;5078314;27;45438;-73
2023/09/19 02:55:19;;;;;;;;;1.00;0.67;;;;;20.17;67.10;100671.94;5078570;27;45463;-73
2023/09/19 02:57:50;;;;;;;;;1.67;1.67;;;;;20.18;66.70;100671.06;5078595;28;45520;-73
2023/09/19 03:00:20;;;;;;;;;1.33;1.33;;;;;20.25;66.73;100679.84;5078292;28;46196;-73
2023/09/19 03:02:49;;;;;;;;;1.33;1.33;;;;;20.11;67.09;100647.25;5078325;27;45573;-73
2023/09/19 03:05:15;;;;;;;;;1.00;1.00;;;;;20.18;66.74;100667.53;5078360;28;45241;-72
2023/09/19 03:07:42;;;;;;;;;3.00;3.00;;;;;20.14;66.65;100661.38;5078854;28;45463;-73
2023/09/19 03:10:09;;;;;;;;;2.67;2.33;;;;;20.23;66.92;100671.03;5060082;28;47086;-78
2023/09/19 03:12:35;;;;;;;;;1.00;1.00;;;;;20.02;67.41;100667.66;5058949;28;45374;-73
2023/09/19 03:15:01;;;;;;;;;1.33;1.00;;;;;19.95;68.04;100665.91;5078270;28;45505;-73
2023/09/19 03:17:27;;;;;;;;;2.67;1.67;;;;;19.83;68.80;100666.88;5078241;28;45266;-73
2023/09/19 03:19:53;;;;;;;;;2.33;2.33;;;;;19.68;68.24;100651.06;5059568;28;45565;-78
2023/09/19 03:22:19;;;;;;;;;2.00;1.67;;;;;19.74;68.11;100647.53;5077974;28;45217;-73
2023/09/19 03:24:46;;;;;;;;;2.00;2.00;;;;;19.77;68.12;100647.50;5078096;28;45418;-73
2023/09/19 03:27:14;;;;;;;;;3.33;2.67;;;;;19.85;67.98;100659.78;5078736;28;45548;-73
2023/09/19 03:29:39;;;;;;;;;1.00;1.00;;;;;19.88;68.12;100655.38;5078279;28;45975;-73
2023/09/19 03:32:05;;;;;;;;;1.67;1.67;;;;;19.95;68.20;100654.44;5078107;28;45406;-73
2023/09/19 03:34:31;;;;;;;;;1.67;1.67;;;;;19.92;67.91;100650.06;5078116;28;45247;-73
2023/09/19 03:36:57;;;;;;;;;1.67;1.67;;;;;19.99;68.02;100654.41;5059882;28;45424;-78
2023/09/19 03:39:23;;;;;;;;;1.67;1.67;;;;;20.01;67.63;100654.41;5059526;28;46912;-73
2023/09/19 03:41:49;;;;;;;;;2.67;2.33;;;;;20.00;67.79;100648.22;5077464;28;45293;-73
2023/09/19 03:44:15;;;;;;;;;1.67;1.67;;;;;19.95;67.76;100644.72;5077945;27;45208;-73
2023/09/19 03:46:40;;;;;;;;;1.67;1.67;;;;;20.03;67.64;100655.25;5078208;28;45210;-73
2023/09/19 03:49:06;;;;;;;;;2.00;2.00;;;;;19.99;67.33;100640.28;5058540;28;46986;-73
2023/09/19 03:51:34;;;;;;;;;2.33;2.00;;;;;19.99;67.32;100633.19;5077714;28;45356;-73
2023/09/19 03:53:59;;;;;;;;;1.67;1.67;;;;;19.99;67.36;100643.78;5077698;28;45410;-72
2023/09/19 03:56:25;;;;;;;;;2.00;1.67;;;;;19.91;67.55;100637.66;5077849;28;45282;-77
2023/09/19 03:58:51;;;;;;;;;2.67;2.33;;;;;19.84;67.98;100635.97;5059162;28;45517;-78
2023/09/19 04:01:18;;;;;;;;;2.67;2.67;;;;;19.72;68.39;100641.34;5077574;28;45273;-73
2023/09/19 04:03:47;;;;;;;;;3.67;3.00;;;;;19.59;68.75;100646.66;5077886;28;45493;-73
2023/09/19 04:06:17;;;;;;;;;4.00;3.33;;;;;19.50;68.90;100635.22;5078059;28;45578;-73
2023/09/19 04:08:44;;;;;;;;;3.00;3.00;;;;;19.46;69.20;100647.66;5077567;28;45387;-73
2023/09/19 04:11:10;;;;;;;;;3.67;3.00;;;;;19.48;68.90;100637.91;5077286;28;45486;-80
2023/09/19 04:13:36;;;;;;;;;1.00;1.00;;;;;19.44;68.79;100623.78;5059286;28;45429;-79
2023/09/19 04:16:06;;;;;;;;;3.67;3.00;;;;;19.53;69.16;100640.53;5077618;28;45413;-75
2023/09/19 04:18:33;;;;;;;;;3.00;2.00;;;;;19.42;69.30;100646.78;5077165;28;46390;-77
2023/09/19 04:21:02;;;;;;;;;7.33;3.67;;;;;19.43;69.22;100645.88;5058989;28;45377;-75
2023/09/19 04:23:28;;;;;;;;;4.00;3.00;;;;;19.37;69.26;100645.03;5077279;28;45324;-78
2023/09/19 04:25:54;;;;;;;;;2.00;2.00;;;;;19.33;68.97;100616.78;5058818;28;45329;-72
2023/09/19 04:28:19;;;;;;;;;3.00;2.33;;;;;19.33;68.77;100616.78;5076979;28;45484;-73
2023/09/19 04:30:45;;;;;;;;;3.00;3.00;;;;;19.37;69.12;100631.78;5077466;28;45512;-72
2023/09/19 04:33:14;;;;;;;;;2.00;2.00;;;;;19.37;69.01;100631.78;5077122;28;45533;-73
2023/09/19 04:35:42;;;;;;;;;2.00;2.00;;;;;19.34;69.08;100624.75;5077518;28;45232;-73
2023/09/19 04:38:08;;;;;;;;;2.00;2.00;;;;;19.36;68.78;100622.06;5076946;28;46199;-72
2023/09/19 04:40:34;;;;;;;;;2.67;2.67;;;;;19.25;69.04;100612.41;5058340;28;45414;-72
2023/09/19 04:43:00;;;;;;;;;3.00;3.00;;;;;19.21;69.36;100610.66;5058827;27;45505;-75
2023/09/19 04:45:26;;;;;;;;;3.33;3.33;;;;;19.21;68.31;100613.31;5077091;28;45365;-75
2023/09/19 04:47:53;;;;;;;;;3.00;3.00;;;;;19.16;69.05;100603.59;5058559;28;45465;-75
2023/09/19 04:50:20;;;;;;;;;1.33;1.00;;;;;19.21;69.17;100612.44;5058860;28;45386;-75
2023/09/19 04:52:50;;;;;;;;;4.00;2.00;;;;;19.17;68.83;100608.91;5058688;28;45619;-75
2023/09/19 04:55:19;;;;;;;;;2.33;2.33;;;;;19.16;69.12;100612.47;5059035;28;45461;-75
2023/09/19 04:57:52;;;;;;;;;4.00;3.00;;;;;19.05;68.93;100596.59;5076534;28;45497;-75
2023/09/19 05:00:23;;;;;;;;;3.00;3.00;;;;;19.12;69.00;100607.16;5079358;28;45557;-75
2023/09/19 05:02:55;;;;;;;;;5.00;4.00;;;;;19.04;69.10;100612.50;5080877;28;45557;-75
2023/09/19 05:05:22;;;;;;;;;3.67;2.00;;;;;18.95;69.83;100615.19;5080355;28;45309;-73
2023/09/19 05:07:48;;;;;;;;;5.00;4.33;;;;;18.62;70.27;100616.97;5080229;28;46161;-73
2023/09/19 05:10:14;;;;;;;;;2.00;1.00;;;;;18.63;70.12;100624.94;5079970;28;45437;-74
2023/09/19 05:12:40;;;;;;;;;3.00;3.00;;;;;18.59;70.31;100620.53;5080373;28;45470;-75
2023/09/19 05:15:08;;;;;;;;;3.67;3.00;;;;;18.65;70.05;100635.50;5080168;28;45622;-75
2023/09/19 05:17:34;;;;;;;;;5.00;4.00;;;;;18.73;70.38;100633.72;5079948;28;46308;-76
2023/09/19 05:20:11;;;;;;;;;3.00;3.00;;;;;18.87;70.19;100631.09;5061601;28;45553;-76
2023/09/19 05:22:39;;;;;;;;;5.00;3.00;;;;;18.87;70.39;100623.16;5079656;28;45501;-72
2023/09/19 05:25:06;;;;;;;;;4.00;4.00;;;;;18.94;69.85;100626.63;5080233;28;45503;-73
2023/09/19 05:27:31;;;;;;;;;4.00;4.00;;;;;19.01;69.82;100631.03;5061460;28;47926;-78
2023/09/19 05:29:57;;;;;;;;;4.33;3.33;;;;;18.86;69.71;100590.50;5079697;28;45444;-78
2023/09/19 05:32:23;;;;;;;;;4.00;3.33;;;;;19.09;69.25;100623.94;5079830;28;45446;-73
2023/09/19 05:34:52;;;;;;;;;4.33;3.00;;;;;19.26;68.68;100648.59;5062042;28;45403;-73
2023/09/19 05:37:18;;;;;;;;;3.33;3.33;;;;;19.29;68.65;100645.06;5061574;28;45456;-74
2023/09/19 05:39:44;;;;;;;;;1.00;1.00;;;;;19.31;68.62;100642.41;5061535;28;45460;-75
2023/09/19 05:42:10;;;;;;;;;3.00;3.00;;;;;19.22;68.70;100630.97;5079828;27;45327;-74
2023/09/19 05:44:35;;;;;;;;;3.67;3.00;;;;;19.13;68.87;100617.75;5079755;28;45493;-76
2023/09/19 05:47:05;;;;;;;;;3.00;3.00;;;;;19.27;68.80;100634.47;5079290;28;46045;-75
2023/09/19 05:49:30;;;;;;;;;3.33;3.00;;;;;19.35;68.65;100645.03;5079385;28;45248;-75
2023/09/19 05:51:58;;;;;;;;;2.67;2.33;;;;;19.29;69.36;100637.09;5079410;28;45377;-75
2023/09/19 05:54:24;;;;;;;;;3.67;2.67;;;;;19.26;69.03;100630.06;5079809;28;45434;-75
2023/09/19 05:56:52;;;;;;;;;3.00;2.00;;;;;19.39;69.27;100652.06;5079396;28;46038;-75
2023/09/19 05:59:19;;;;;;;;;6.00;5.00;;;;;19.44;69.16;100636.16;5061457;28;45496;-74
2023/09/19 06:01:45;;;;;;;;;3.00;2.33;;;;;19.53;68.73;100638.75;5079313;27;45219;-75
2023/09/19 06:04:11;;;;;;;;;2.67;2.33;;;;;19.64;68.20;100644.00;5079216;27;45509;-80
2023/09/19 06:06:39;;;;;;;;;2.00;2.00;;;;;19.62;68.21;100624.59;5078831;28;45232;-75
2023/09/19 06:09:08;;;;;;;;;7.00;7.00;;;;;19.76;68.10;100641.31;5079117;28;45418;-75
2023/09/19 06:11:34;;;;;;;;;3.00;3.00;;;;;19.80;67.91;100639.53;5078621;28;45512;-75
2023/09/19 06:14:02;;;;;;;;;3.00;2.67;;;;;19.86;67.93;100640.38;5079065;28;45226;-75
2023/09/19 06:16:29;;;;;;;;;2.00;1.67;;;;;19.86;67.80;100620.94;5060229;28;45536;-74
2023/09/19 06:18:55;;;;;;;;;2.67;2.67;;;;;19.99;67.36;100629.66;5078551;28;45440;-74
2023/09/19 06:21:24;;;;;;;;;3.67;3.33;;;;;19.98;67.67;100627.91;5079161;28;45371;-80
2023/09/19 06:23:50;;;;;;;;;6.33;5.67;;;;;20.05;67.55;100635.81;5061154;28;45496;-75
2023/09/19 06:26:15;;;;;;;;;5.00;4.33;;;;;19.98;67.62;100628.78;5060531;28;45602;-75
2023/09/19 06:28:42;;;;;;;;;4.33;3.67;;;;;20.08;67.10;100632.25;5078895;28;45549;-75
2023/09/19 06:31:09;;;;;;;;;2.67;2.67;;;;;20.19;66.67;100632.16;5060512;28;45385;-74
2023/09/19 06:33:39;;;;;;;;;3.00;2.67;;;;;20.08;66.96;100642.00;5079011;28;45494;-74
2023/09/19 06:36:07;;;;;;;;;2.67;2.67;;;;;20.14;67.13;100644.59;5078463;28;46341;-74
2023/09/19 06:38:35;;;;;;;;;1.67;1.67;;;;;20.13;66.63;100641.03;5078500;28;45366;-80
2023/09/19 06:41:04;;;;;;;;;3.00;2.00;;;;;20.24;66.40;100640.97;5060267;28;45488;-74
2023/09/19 06:43:32;;;;;;;;;3.33;1.67;;;;;20.37;66.42;100652.34;5060414;28;45294;-75
2023/09/19 06:45:59;;;;;;;;;3.00;3.00;;;;;20.34;65.70;100637.34;5060107;28;46872;-76
2023/09/19 06:48:25;;;;;;;;;3.67;3.33;;;;;20.29;66.18;100635.63;5078786;28;45405;-75
2023/09/19 06:50:52;;;;;;;;;2.33;2.33;;;;;20.34;66.08;100632.03;5060489;28;45638;-80
2023/09/19 06:53:18;;;;;;;;;3.67;1.67;;;;;20.49;65.61;100638.97;5078644;28;45516;-75
2023/09/19 06:55:45;;;;;;;;;4.00;4.00;;;;;21.28;64.91;100639.03;5077911;28;46575;-74
2023/09/19 06:58:10;;;;;;;;;19.00;17.50;;;;;23.40;60.02;100622.19;5059967;28;45269;-75
2023/09/19 07:00:37;;;;;;;;;26.25;23.50;;;;;25.25;54.64;100622.00;5059868;28;45498;-74
2023/09/19 07:03:13;;;;;;;;;5.67;5.67;;;;;26.42;51.39;100627.19;5060305;28;45417;-74
2023/09/19 07:05:39;;;;;;;;;5.00;3.00;;;;;27.36;49.23;100623.88;5059790;28;46393;-80
2023/09/19 07:08:07;;;;;;;;;3.00;2.00;;;;;28.25;48.41;100631.06;5078141;28;45286;-80
2023/09/19 07:10:33;;;;;;;;;2.33;2.33;;;;;29.04;45.70;100619.56;5060101;28;45513;-79
2023/09/19 07:13:00;;;;;;;;;1.00;1.00;;;;;29.71;44.15;100623.63;5078164;28;45315;-80
2023/09/19 07:15:27;;;;;;;;;4.67;3.67;;;;;30.24;42.62;100595.88;5078392;28;45500;-78
2023/09/19 07:17:54;;;;;;;;;4.00;3.00;;;;;30.93;40.71;100613.84;5078212;28;45509;-78
2023/09/19 07:20:20;;;;;;;;;2.00;2.00;;;;;31.70;40.36;100620.41;5078326;28;45330;-80
2023/09/19 07:22:47;;;;;;;;;0.33;0.00;;;;;32.24;39.16;100602.94;5058332;28;45561;-79
2023/09/19 07:25:14;;;;;;;;;3.00;2.00;;;;;32.96;37.52;100601.22;5077623;28;46118;-75
2023/09/19 07:27:43;;;;;;;;;1.00;1.00;;;;;33.71;37.79;100617.25;5077563;28;45436;-75
2023/09/19 07:30:11;;;;;;;;;2.00;2.00;;;;;34.27;35.23;100618.03;5078083;27;45310;-75
2023/09/19 07:32:38;;;;;;;;;0.67;0.67;;;;;34.77;34.71;100612.78;5059934;28;45546;-75
2023/09/19 07:35:08;;;;;;;;;1.00;1.00;;;;;35.40;33.57;100619.16;5077710;28;45423;-75
2023/09/19 07:37:36;;;;;;;;;10.00;9.33;;;;;36.15;33.00;100612.75;5059420;28;45406;-75
2023/09/19 07:40:07;;;;;;;;;3.33;3.00;;;;;36.57;32.47;100617.66;5077814;28;45332;-75
2023/09/19 07:42:35;;;;;;;;;3.00;3.00;;;;;36.91;31.44;100593.25;5078034;28;45393;-75
2023/09/19 07:45:01;;;;;;;;;4.00;4.00;;;;;37.33;31.85;100605.28;5077442;28;46055;-75
2023/09/19 07:47:27;;;;;;;;;4.67;4.67;;;;;37.67;29.79;100616.16;5077710;28;45533;-75
2023/09/19 07:49:54;;;;;;;;;3.00;3.00;;;;;38.22;29.83;100607.91;5077588;28;45212;-75
2023/09/19 07:52:22;;;;;;;;;2.67;2.00;;;;;38.70;29.62;100614.72;5059575;28;45315;-80
2023/09/19 07:54:49;;;;;;;;;3.00;3.00;;;;;39.13;27.35;100613.69;5059006;28;46406;-82
2023/09/19 07:57:15;;;;;;;;;6.67;5.67;;;;;39.15;28.10;100604.34;5077221;28;45333;-83
2023/09/19 07:59:42;;;;;;;;;5.00;4.33;;;;;39.16;26.98;100597.03;5077000;28;45260;-82
2023/09/19 08:02:15;;;;;;;;;1.33;1.33;;;;;39.54;26.50;100617.31;5058952;28;45525;-83
2023/09/19 08:04:48;;;;;;;;;3.00;1.00;;;;;39.72;27.38;100596.47;5058506;28;47992;-82
2023/09/19 08:07:14;;;;;;;;;2.00;2.00;;;;;40.04;26.77;100592.63;5077335;28;45339;-82
2023/09/19 08:09:46;;;;;;;;;5.00;4.00;;;;;40.29;25.82;100629.50;5078616;28;45276;-81
2023/09/19 08:12:12;;;;;;;;;4.00;4.00;;;;;40.02;26.64;100630.22;5078438;28;45784;-83
2023/09/19 08:14:38;;;;;;;;;5.00;5.00;;;;;40.10;25.36;100624.88;5077382;28;45407;-83
2023/09/19 08:17:07;;;;;;;;;2.00;2.00;;;;;40.67;26.25;100624.13;5077449;28;45484;-83
2023/09/19 08:19:33;;;;;;;;;3.33;3.00;;;;;41.23;26.38;100623.28;5060218;28;45480;-83
2023/09/19 08:21:59;;;;;;;;;3.33;3.00;;;;;41.36;24.30;100620.19;5060090;28;45520;-83
2023/09/19 08:24:29;;;;;;;;;2.67;2.33;;;;;41.54;24.35;100620.22;5076331;28;45242;-83
2023/09/19 08:26:57;;;;;;;;;3.00;2.00;;;;;41.75;24.99;100624.59;5058487;28;45890;-83
2023/09/19 08:29:27;;;;;;;;;2.00;2.00;;;;;41.38;24.12;100623.63;5077198;28;45508;-82
2023/09/19 08:31:57;;;;;;;;;2.33;2.00;;;;;40.63;25.68;100620.84;5075898;28;45466;-83
2023/09/19 08:34:26;;;;;;;;;2.00;2.00;;;;;41.46;25.19;100620.13;5077594;28;45516;-83
2023/09/19 08:36:56;;;;;;;;;3.00;2.00;;;;;42.22;25.35;100632.63;5080546;28;45226;-82
2023/09/19 08:39:25;;;;;;;;;1.00;0.67;;;;;42.55;23.38;100628.28;5080466;28;45370;-84
2023/09/19 08:42:01;;;;;;;;;2.33;1.67;;;;;42.61;22.76;100593.81;5081663;28;45249;-83
2023/09/19 08:44:30;;;;;;;;;0.33;0.00;;;;;42.68;22.04;100636.13;5063020;28;45524;-82
2023/09/19 08:47:20;;;;;;;;;0.00;0.00;;;;;42.60;22.50;100625.94;5050006;27;45549;-83
2023/09/19 08:50:15;;;;;;;;;11.00;9.00;;;;;42.45;22.74;100631.13;5062701;28;45212;-83
2023/09/19 08:52:42;;;;;;;;;0.00;0.00;;;;;42.59;23.12;100637.94;5079865;27;45236;-83
2023/09/19 08:55:12;;;;;;;;;0.67;0.00;;;;;42.45;21.90;100625.63;5061233;28;45524;-83
2023/09/19 08:57:42;;;;;;;;;0.00;0.00;;;;;42.15;23.16;100628.81;5081866;28;45484;-75
2023/09/19 09:00:12;;;;;;;;;0.67;0.67;;;;;42.57;23.64;100620.75;5079796;28;45793;-75
2023/09/19 09:02:43;;;;;;;;;0.00;0.00;;;;;43.09;23.45;100628.13;5078967;27;45600;-82
2023/09/19 09:05:10;;;;;;;;;0.00;0.00;;;;;43.45;21.98;100642.56;5077530;27;46217;-87
2023/09/19 09:07:40;;;;;;;;;1.00;0.33;;;;;43.54;21.95;100632.47;5061629;28;45535;-82
2023/09/19 09:10:06;;;;;;;;;1.00;0.00;;;;;43.29;21.48;100629.63;5061238;28;45462;-74
2023/09/19 09:12:36;;;;;;;;;0.00;0.00;;;;;43.32;22.55;100625.69;5062497;28;45488;-75
2023/09/19 09:15:03;;;;;;;;;0.00;0.00;;;;;43.86;21.58;100648.22;5079977;28;46095;-76
2023/09/19 09:17:30;;;;;;;;;0.00;0.00;;;;;43.37;20.56;100638.94;5075871;27;45590;-88
2023/09/19 09:19:56;;;;;;;;;0.00;0.00;;;;;42.54;22.08;100626.59;5084614;27;45516;-92
2023/09/19 09:22:23;;;;;;;;;0.00;0.00;;;;;42.67;22.32;100637.97;5087162;27;45444;-81
2023/09/19 09:25:01;;;;;;;;;0.00;0.00;;;;;42.57;22.09;100633.63;5060646;28;46288;-82
2023/09/19 09:27:27;;;;;;;;;0.33;0.33;;;;;42.46;21.89;100631.97;5078806;27;46912;-84
2023/09/19 09:29:56;;;;;;;;;11.33;11.33;;;;;42.62;21.95;100631.25;5080667;28;45388;-91
2023/09/19 09:32:33;;;;;;;;;1.67;0.67;;;;;42.74;23.12;100624.47;5062290;28;45468;-90
2023/09/19 09:35:00;;;;;;;;;21.33;20.33;;;;;42.88;21.26;100632.16;5080270;28;46008;-89
2023/09/19 09:37:31;;;;;;;;;21.00;19.00;;;;;42.80;22.38;100615.59;5079356;27;45352;-76
2023/09/19 09:42:40;;;;;;;;;0.00;0.00;;;;;42.78;21.86;100625.88;5079197;27;45454;-77
2023/09/19 09:45:17;;;;;;;;;0.00;0.00;;;;;42.01;22.11;100619.19;5057948;28;47369;-76
2023/09/19 09:47:49;;;;;;;;;0.00;0.00;;;;;41.60;23.05;100625.09;5078123;28;45408;-76
2023/09/19 09:51:07;;;;;;;;;0.00;0.00;;;;;41.17;22.65;100626.59;5076544;27;45402;-82
2023/09/19 09:53:28;;;;;;;;;0.00;0.00;;;;;40.30;23.70;100603.00;5072891;27;45525;-76
2023/09/19 09:55:58;;;;;;;;;0.00;0.00;;;;;40.05;23.98;100619.00;5060441;28;47479;-76
2023/09/19 09:58:28;;;;;;;;;0.00;0.00;;;;;39.87;24.29;100618.81;5079875;28;45447;-86
2023/09/19 10:01:17;;;;;;;;;0.33;0.33;;;;;39.58;24.81;100621.50;5080168;28;45464;-87
2023/09/19 10:03:44;;;;;;;;;0.00;0.00;;;;;39.51;25.71;100621.19;5079057;27;45461;-86
2023/09/19 10:06:32;;;;;;;;;0.33;0.33;;;;;39.37;24.65;100625.13;5079397;28;45287;-90
2023/09/19 10:09:20;;;;;;;;;0.00;0.00;;;;;39.10;25.49;100608.53;5075248;27;45487;-90
2023/09/19 10:12:05;;;;;;;;;0.00;0.00;;;;;39.09;24.84;100623.16;5076707;27;45489;-92
2023/09/19 10:14:37;;;;;;;;;2.67;2.00;;;;;39.03;26.06;100586.34;5080102;28;45555;-87
2023/09/19 10:17:06;;;;;;;;;0.00;0.00;;;;;39.50;25.36;100615.88;5061772;28;46428;-79
2023/09/19 10:20:22;;;;;;;;;0.00;0.00;;;;;39.87;23.92;100612.50;5078307;28;45516;-85
2023/09/19 10:22:57;;;;;;;;;0.00;0.00;;;;;39.90;23.93;100612.22;5063498;28;45769;-77
2023/09/19 10:25:33;;;;;;;;;0.33;0.33;;;;;39.63;24.21;100608.25;5076593;28;45497;-78
2023/09/19 10:28:06;;;;;;;;;0.00;0.00;;;;;39.72;24.51;100603.81;5055067;28;45509;-77
2023/09/19 10:30:36;;;;;;;;;0.33;0.00;;;;;39.50;25.75;100608.53;5078210;28;45430;-77
2023/09/19 10:33:05;;;;;;;;;0.00;0.00;;;;;38.97;25.68;100600.50;5061038;27;45432;-79
2023/09/19 10:35:33;;;;;;;;;0.00;0.00;;;;;38.64;26.52;100590.69;5079412;28;45505;-78
2023/09/19 10:38:02;;;;;;;;;0.00;0.00;;;;;38.05;26.52;100597.56;5082734;28;46274;-83
2023/09/19 10:40:31;;;;;;;;;0.00;0.00;;;;;37.98;27.32;100595.38;5078467;28;45426;-77
2023/09/19 10:43:07;;;;;;;;;0.00;0.00;;;;;37.21;27.68;100589.94;5078217;27;45410;-77
2023/09/19 10:45:35;;;;;;;;;0.00;0.00;;;;;36.75;28.47;100564.56;5060032;27;45369;-86
2023/09/19 10:48:03;;;;;;;;;0.00;0.00;;;;;36.36;29.53;100587.59;5059794;28;47991;-78
2023/09/19 10:50:41;;;;;;;;;0.00;0.00;;;;;35.67;29.48;100584.66;5077964;27;45531;-78
2023/09/19 10:53:10;;;;;;;;;1.00;0.67;;;;;35.13;30.40;100573.13;5078643;28;45325;-77
2023/09/19 10:55:37;;;;;;;;;0.00;0.00;;;;;34.54;30.81;100546.59;5078777;28;45261;-77
2023/09/19 10:58:14;;;;;;;;;0.00;0.00;;;;;34.19;31.48;100571.59;5077960;28;45320;-86
2023/09/19 11:01:01;;;;;;;;;0.33;0.00;;;;;34.15;31.88;100567.34;5078298;28;45496;-77
2023/09/19 11:03:32;;;;;;;;;0.33;0.00;;;;;34.16;32.40;100562.78;5078307;28;45367;-86
2023/09/19 11:06:10;;;;;;;;;0.33;0.00;;;;;33.80;33.58;100556.16;5076897;28;45202;-77
2023/09/19 11:08:51;;;;;;;;;1.00;0.00;;;;;33.29;33.77;100567.63;5079247;28;45442;-84
2023/09/19 11:11:42;;;;;;;;;0.33;0.00;;;;;32.93;34.40;100558.16;5078594;28;45517;-77
2023/09/19 11:14:29;;;;;;;;;1.00;0.00;;;;;32.97;33.81;100550.69;5078323;28;45398;-77
2023/09/19 11:17:15;;;;;;;;;0.00;0.00;;;;;32.66;34.17;100545.38;5077759;27;45606;-84
2023/09/19 11:22:58;;;;;;;;;0.00;0.00;;;;;32.47;35.59;100540.22;5082253;28;45340;-77
2023/09/19 11:25:30;;;;;;;;;0.00;0.00;;;;;32.54;35.11;100534.44;5079942;27;45413;-77
2023/09/19 11:30:34;;;;;;;;;0.00;0.00;;;;;32.21;36.07;100536.44;5077930;28;45582;-76
2023/09/19 11:33:23;;;;;;;;;0.33;0.00;;;;;31.80;36.78;100522.66;5076575;28;45314;-77
2023/09/19 11:36:03;;;;;;;;;1.00;0.67;;;;;31.49;36.78;100517.19;5059529;28;45407;-85
2023/09/19 11:38:52;;;;;;;;;1.00;1.00;;;;;31.24;37.96;100527.66;5077762;28;45360;-77
2023/09/19 11:41:20;;;;;;;;;1.00;0.67;;;;;31.28;38.17;100526.53;5083452;27;45760;-77
2023/09/19 11:43:46;;;;;;;;;1.00;0.00;;;;;31.10;38.06;100490.66;5063107;27;44921;-80
2023/09/19 11:46:16;;;;;;;;;1.00;1.00;;;;;31.29;37.76;100515.63;5077855;28;45445;-85